Time;durP1;ratioP1;P1;durP2;ratioP2;P2;SDS_P1;SDS_P2;PMS_P1;PMS_P2;Temp;Humidity;BMP_temperature;BMP_pressure;BME280_temperature;BME280_humidity;BME280_pressure;Samples;Min_cycle;Max_cycle;Signal;HPM_P1;HPM_P2
2022/12/09 00:00:24;;;;;;;;;;;18.80;45.90;;;;;;5001226;28;19922;-54
2022/12/09 00:02:49;;;;;;;;;;;18.80;46.00;;;;;;5002474;28;19978;-54
2022/12/09 00:05:15;;;;;;;;;;;18.80;46.10;;;;;;5012820;28;19924;-54
2022/12/09 00:07:40;;;;;;;;;;;18.80;45.90;;;;;;5000169;28;19924;-54
2022/12/09 00:10:06;;;;;;;;;;;18.80;45.90;;;;;;4999782;28;19928;-54
2022/12/09 00:12:31;;;;;;;;;;;18.80;46.00;;;;;;5003143;28;19913;-54
2022/12/09 00:14:57;;;;;;;;;;;18.80;46.00;;;;;;5001355;28;19924;-54
2022/12/09 00:17:22;;;;;;;;;;;18.80;45.70;;;;;;5001061;28;19921;-54
2022/12/09 00:19:48;;;;;;;;;;;18.70;45.60;;;;;;5004497;28;19924;-54
2022/12/09 00:22:13;;;;;;;;;;;18.70;45.60;;;;;;5001180;28;19928;-54
2022/12/09 00:24:39;;;;;;;;;;;18.80;45.70;;;;;;5003120;28;19929;-54
2022/12/09 00:27:04;;;;;;;;;;;18.70;45.50;;;;;;5005231;28;19954;-54
2022/12/09 00:29:30;;;;;;;;;;;18.70;46.20;;;;;;5003845;28;19921;-54
2022/12/09 00:31:55;;;;;;;;;;;18.70;45.60;;;;;;5004712;28;19914;-54
2022/12/09 00:34:20;;;;;;;;;;;18.70;45.60;;;;;;5001200;28;19914;-55
2022/12/09 00:36:46;;;;;;;;;;;18.70;45.60;;;;;;5005766;28;20014;-54
2022/12/09 00:39:11;;;;;;;;;;;18.70;45.50;;;;;;5005079;28;19928;-54
2022/12/09 00:41:37;;;;;;;;;;;18.70;45.60;;;;;;5003399;28;19922;-53
2022/12/09 00:44:02;;;;;;;;;;;18.70;45.70;;;;;;5004397;28;20016;-54
2022/12/09 00:46:28;;;;;;;;;;;18.70;45.40;;;;;;5004596;28;19914;-54
2022/12/09 00:48:53;;;;;;;;;;;18.70;45.50;;;;;;5008479;28;19913;-54
2022/12/09 00:51:20;;;;;;;;;;;18.70;45.40;;;;;;5011910;28;19914;-54
2022/12/09 00:53:46;;;;;;;;;;;18.70;45.40;;;;;;5002440;28;19952;-54
2022/12/09 00:56:11;;;;;;;;;;;18.70;45.40;;;;;;5003084;28;19918;-54
2022/12/09 00:58:37;;;;;;;;;;;18.70;45.30;;;;;;5004584;28;19924;-54
2022/12/09 01:01:02;;;;;;;;;;;18.70;45.30;;;;;;5005132;28;20361;-55
2022/12/09 01:03:28;;;;;;;;;;;18.70;45.40;;;;;;5004551;28;19937;-54
2022/12/09 01:05:53;;;;;;;;;;;18.70;45.40;;;;;;5003008;28;19919;-55
2022/12/09 01:08:19;;;;;;;;;;;18.70;45.20;;;;;;5001919;28;20434;-54
2022/12/09 01:10:44;;;;;;;;;;;18.60;45.10;;;;;;5005635;28;19931;-53
2022/12/09 01:13:10;;;;;;;;;;;18.60;45.10;;;;;;5001497;28;19928;-54
2022/12/09 01:15:36;;;;;;;;;;;18.60;45.10;;;;;;5003066;28;19918;-53
2022/12/09 01:18:01;;;;;;;;;;;18.60;45.20;;;;;;5011060;28;19917;-54
2022/12/09 01:20:27;;;;;;;;;;;18.60;45.10;;;;;;5007388;28;19929;-54
2022/12/09 01:22:52;;;;;;;;;;;18.60;45.10;;;;;;4999583;28;19920;-54
2022/12/09 01:25:18;;;;;;;;;;;18.60;45.00;;;;;;5002223;28;20770;-54
2022/12/09 01:27:43;;;;;;;;;;;18.60;45.00;;;;;;5002891;28;20280;-54
2022/12/09 01:30:09;;;;;;;;;;;18.60;45.10;;;;;;5002580;28;19940;-55
2022/12/09 01:32:35;;;;;;;;;;;18.60;45.10;;;;;;5000537;28;19995;-55
2022/12/09 01:35:01;;;;;;;;;;;18.60;45.00;;;;;;5003349;28;19942;-54
2022/12/09 01:37:27;;;;;;;;;;;18.60;45.10;;;;;;5000340;28;19909;-54
2022/12/09 01:39:52;;;;;;;;;;;18.60;44.80;;;;;;5002801;28;19921;-54
2022/12/09 01:42:18;;;;;;;;;;;18.60;45.00;;;;;;5003318;28;19925;-53
2022/12/09 01:45:02;;;;;;;;;;;18.60;45.00;;;;;;5004103;28;20410;-55
2022/12/09 01:47:28;;;;;;;;;;;18.60;45.00;;;;;;5001401;28;19922;-55
2022/12/09 01:49:53;;;;;;;;;;;18.50;44.80;;;;;;4999708;28;19921;-55
2022/12/09 01:52:20;;;;;;;;;;;18.50;44.70;;;;;;5002562;28;19914;-54
2022/12/09 01:54:45;;;;;;;;;;;18.60;44.90;;;;;;4991062;28;19918;-53
2022/12/09 01:57:11;;;;;;;;;;;18.60;44.80;;;;;;5001857;28;19932;-54
2022/12/09 01:59:36;;;;;;;;;;;18.60;44.90;;;;;;5003186;28;20016;-53
2022/12/09 02:02:02;;;;;;;;;;;18.50;44.80;;;;;;5002348;28;20388;-54
2022/12/09 02:04:28;;;;;;;;;;;18.50;44.70;;;;;;5004084;28;19941;-53
2022/12/09 02:06:54;;;;;;;;;;;18.50;44.70;;;;;;4995927;28;20285;-54
2022/12/09 02:09:19;;;;;;;;;;;18.50;44.70;;;;;;5001907;28;19910;-53
2022/12/09 02:11:48;;;;;;;;;;;18.50;44.80;;;;;;4999965;28;19928;-54
2022/12/09 02:14:15;;;;;;;;;;;18.50;44.80;;;;;;4995508;28;19913;-55
2022/12/09 02:17:01;;;;;;;;;;;18.50;44.80;;;;;;5028703;28;19918;-54
2022/12/09 02:19:32;;;;;;;;;;;18.50;44.70;;;;;;5004960;28;19948;-54
2022/12/09 02:21:58;;;;;;;;;;;18.50;44.70;;;;;;5002617;28;19925;-55
2022/12/09 02:24:33;;;;;;;;;;;18.50;44.50;;;;;;5003530;28;19917;-54
2022/12/09 02:27:07;;;;;;;;;;;18.50;44.70;;;;;;5003018;28;19913;-56
2022/12/09 02:29:51;;;;;;;;;;;18.60;44.30;;;;;;5002174;28;20004;-54
2022/12/09 02:32:26;;;;;;;;;;;18.90;43.60;;;;;;5000278;28;19918;-54
2022/12/09 02:34:52;;;;;;;;;;;19.20;42.90;;;;;;5001524;28;19914;-53
2022/12/09 02:37:19;;;;;;;;;;;19.50;42.30;;;;;;5014397;28;19917;-54
2022/12/09 02:39:53;;;;;;;;;;;19.80;41.80;;;;;;5011639;28;20012;-54
2022/12/09 02:42:20;;;;;;;;;;;20.00;41.50;;;;;;5002123;28;19918;-54
2022/12/09 02:44:46;;;;;;;;;;;20.20;41.20;;;;;;5002684;28;19919;-54
2022/12/09 02:47:12;;;;;;;;;;;20.40;41.10;;;;;;4987986;28;19913;-53
2022/12/09 02:49:37;;;;;;;;;;;20.40;40.90;;;;;;4990863;28;19978;-53
2022/12/09 02:52:03;;;;;;;;;;;20.40;40.90;;;;;;4997539;28;20246;-53
2022/12/09 02:54:28;;;;;;;;;;;20.30;40.90;;;;;;5001628;28;20465;-54
2022/12/09 02:56:54;;;;;;;;;;;20.40;41.10;;;;;;4987417;28;20248;-52
2022/12/09 02:59:20;;;;;;;;;;;20.30;41.20;;;;;;4986919;28;19963;-53
2022/12/09 03:02:09;;;;;;;;;;;20.20;41.30;;;;;;4995385;28;19918;-53
2022/12/09 03:04:35;;;;;;;;;;;20.00;41.50;;;;;;5000962;28;20429;-54
2022/12/09 03:07:07;;;;;;;;;;;19.90;41.80;;;;;;4989731;28;20038;-53
2022/12/09 03:09:33;;;;;;;;;;;19.70;42.10;;;;;;5000379;28;19929;-53
2022/12/09 03:12:00;;;;;;;;;;;19.50;42.40;;;;;;5001649;28;20016;-54
2022/12/09 03:14:26;;;;;;;;;;;19.40;42.80;;;;;;4999165;28;20426;-54
2022/12/09 03:16:59;;;;;;;;;;;19.20;42.90;;;;;;4987530;28;19914;-54
2022/12/09 03:19:27;;;;;;;;;;;19.10;43.10;;;;;;4992302;28;20456;-54
2022/12/09 03:21:56;;;;;;;;;;;19.10;43.20;;;;;;5016731;28;19999;-55
2022/12/09 03:24:27;;;;;;;;;;;19.00;43.30;;;;;;5002618;28;20331;-53
2022/12/09 03:26:52;;;;;;;;;;;19.00;43.30;;;;;;4989811;28;19914;-54
2022/12/09 03:29:18;;;;;;;;;;;19.10;43.20;;;;;;5002057;28;19925;-54
2022/12/09 03:31:44;;;;;;;;;;;19.10;42.70;;;;;;4989329;28;20325;-54
2022/12/09 03:34:10;;;;;;;;;;;19.30;42.30;;;;;;5000831;28;19914;-54
2022/12/09 03:36:36;;;;;;;;;;;19.50;41.80;;;;;;5000914;28;19918;-53
2022/12/09 03:39:02;;;;;;;;;;;19.60;41.60;;;;;;5002686;28;19918;-53
2022/12/09 03:41:28;;;;;;;;;;;19.70;41.50;;;;;;4986525;28;19925;-54
2022/12/09 03:43:56;;;;;;;;;;;19.80;41.30;;;;;;5001749;28;20130;-54
2022/12/09 03:46:22;;;;;;;;;;;19.90;41.40;;;;;;4998436;28;20285;-53
2022/12/09 03:48:47;;;;;;;;;;;19.90;41.50;;;;;;5003362;28;19920;-55
2022/12/09 03:51:14;;;;;;;;;;;19.90;41.50;;;;;;5001849;28;19913;-54
2022/12/09 03:53:39;;;;;;;;;;;19.80;41.60;;;;;;4990452;28;19928;-55
2022/12/09 03:56:21;;;;;;;;;;;19.70;41.60;;;;;;4997439;28;20373;-54
2022/12/09 03:58:46;;;;;;;;;;;19.80;42.50;;;;;;4987485;28;19922;-54
2022/12/09 04:01:12;;;;;;;;;;;19.60;42.00;;;;;;4989621;28;20396;-54
2022/12/09 04:03:37;;;;;;;;;;;19.60;42.10;;;;;;4993469;28;19993;-53
2022/12/09 04:06:03;;;;;;;;;;;19.50;42.20;;;;;;5006020;28;20029;-54
2022/12/09 04:08:28;;;;;;;;;;;19.40;42.40;;;;;;5004414;28;20457;-54
2022/12/09 04:10:53;;;;;;;;;;;19.30;42.50;;;;;;5005100;28;19957;-54
2022/12/09 04:13:19;;;;;;;;;;;19.30;42.60;;;;;;5014123;28;20404;-54
2022/12/09 04:15:44;;;;;;;;;;;19.30;42.70;;;;;;5004175;28;20420;-55
2022/12/09 04:18:10;;;;;;;;;;;19.30;42.70;;;;;;5005610;28;20281;-54
2022/12/09 04:20:35;;;;;;;;;;;19.20;42.70;;;;;;5000951;28;19926;-54
2022/12/09 04:23:01;;;;;;;;;;;19.20;42.60;;;;;;5004671;28;20000;-54
2022/12/09 04:25:26;;;;;;;;;;;19.30;42.70;;;;;;5003973;28;19914;-54
2022/12/09 04:27:52;;;;;;;;;;;19.40;42.10;;;;;;5005470;28;19921;-54
2022/12/09 04:30:17;;;;;;;;;;;19.50;41.90;;;;;;5001260;28;19914;-54
2022/12/09 04:32:43;;;;;;;;;;;19.50;41.60;;;;;;5005230;28;19992;-54
2022/12/09 04:35:08;;;;;;;;;;;19.60;41.60;;;;;;5001588;28;20144;-53
2022/12/09 04:37:36;;;;;;;;;;;19.60;41.60;;;;;;4999306;28;19917;-53
2022/12/09 04:40:02;;;;;;;;;;;19.60;41.70;;;;;;5000282;28;19923;-54
2022/12/09 04:42:28;;;;;;;;;;;19.60;41.70;;;;;;5004973;28;19998;-54
2022/12/09 04:44:54;;;;;;;;;;;19.50;41.80;;;;;;5005605;28;19917;-54
2022/12/09 04:47:19;;;;;;;;;;;19.50;41.80;;;;;;5004353;28;19921;-54
2022/12/09 04:49:44;;;;;;;;;;;19.50;42.00;;;;;;4999978;28;19967;-53
2022/12/09 04:52:10;;;;;;;;;;;19.50;42.00;;;;;;5004451;28;19913;-54
2022/12/09 04:54:35;;;;;;;;;;;19.50;42.00;;;;;;5004487;28;19913;-54
2022/12/09 04:57:01;;;;;;;;;;;19.40;42.10;;;;;;4996364;28;19952;-55
2022/12/09 04:59:28;;;;;;;;;;;19.40;42.10;;;;;;5001759;28;20213;-54
2022/12/09 05:01:54;;;;;;;;;;;19.40;42.10;;;;;;5002089;28;19921;-54
2022/12/09 05:04:19;;;;;;;;;;;19.40;42.20;;;;;;5005507;28;20033;-55
2022/12/09 05:06:45;;;;;;;;;;;19.30;42.20;;;;;;5003441;28;20380;-55
2022/12/09 05:09:11;;;;;;;;;;;19.30;42.10;;;;;;5004016;28;19986;-55
2022/12/09 05:11:36;;;;;;;;;;;19.40;42.10;;;;;;5001316;28;20318;-55
2022/12/09 05:14:02;;;;;;;;;;;19.40;41.80;;;;;;4999893;28;19920;-54
2022/12/09 05:16:27;;;;;;;;;;;19.50;41.60;;;;;;5003941;28;20383;-54
2022/12/09 05:18:53;;;;;;;;;;;19.50;41.60;;;;;;5004783;28;19917;-55
2022/12/09 05:21:19;;;;;;;;;;;19.50;41.30;;;;;;5008410;28;19930;-54
2022/12/09 05:23:44;;;;;;;;;;;19.60;41.40;;;;;;5005658;28;19917;-53
2022/12/09 05:26:10;;;;;;;;;;;19.60;41.40;;;;;;5001568;28;19913;-54
2022/12/09 05:28:36;;;;;;;;;;;19.50;41.30;;;;;;5003555;28;19918;-54
2022/12/09 05:31:02;;;;;;;;;;;19.50;41.60;;;;;;4999805;28;19936;-54
2022/12/09 05:33:27;;;;;;;;;;;19.50;41.80;;;;;;5001748;28;19917;-54
2022/12/09 05:35:53;;;;;;;;;;;19.40;41.90;;;;;;5001923;28;19924;-53
2022/12/09 05:38:18;;;;;;;;;;;19.40;41.90;;;;;;5001069;28;19929;-54
2022/12/09 05:40:44;;;;;;;;;;;19.30;42.00;;;;;;4995947;28;19963;-54
2022/12/09 05:43:09;;;;;;;;;;;19.30;42.10;;;;;;5003238;28;20062;-55
2022/12/09 05:45:35;;;;;;;;;;;19.30;42.10;;;;;;4999937;28;19921;-54
2022/12/09 05:48:00;;;;;;;;;;;19.30;42.10;;;;;;5004485;28;19914;-54
2022/12/09 05:50:25;;;;;;;;;;;19.30;42.10;;;;;;5002372;28;20369;-53
2022/12/09 05:52:51;;;;;;;;;;;19.30;42.00;;;;;;5005016;28;20428;-53
2022/12/09 05:55:16;;;;;;;;;;;19.30;42.00;;;;;;5002912;28;19944;-53
2022/12/09 05:57:42;;;;;;;;;;;19.40;41.90;;;;;;5002810;28;19968;-53
2022/12/09 06:00:07;;;;;;;;;;;19.40;41.80;;;;;;5002268;28;19940;-54
2022/12/09 06:02:33;;;;;;;;;;;19.40;41.70;;;;;;5002196;28;20008;-53
2022/12/09 06:04:58;;;;;;;;;;;19.50;41.70;;;;;;5001888;28;19917;-54
2022/12/09 06:07:24;;;;;;;;;;;19.50;41.60;;;;;;5002180;28;19954;-54
2022/12/09 06:09:49;;;;;;;;;;;19.50;41.40;;;;;;5001096;28;19924;-54
2022/12/09 06:12:15;;;;;;;;;;;19.50;41.40;;;;;;5002871;28;19962;-54
2022/12/09 06:14:40;;;;;;;;;;;19.50;41.50;;;;;;5000835;28;19936;-54
2022/12/09 06:17:06;;;;;;;;;;;19.50;41.60;;;;;;5004536;28;19913;-54
2022/12/09 06:19:31;;;;;;;;;;;19.50;41.60;;;;;;5016200;28;20365;-54
2022/12/09 06:21:56;;;;;;;;;;;19.40;41.70;;;;;;5001507;28;20415;-54
2022/12/09 06:24:22;;;;;;;;;;;19.40;41.80;;;;;;5002091;28;20395;-53
2022/12/09 06:26:48;;;;;;;;;;;19.30;41.80;;;;;;4999244;28;20323;-53
2022/12/09 06:29:13;;;;;;;;;;;19.30;41.90;;;;;;5003654;28;20515;-54
2022/12/09 06:31:38;;;;;;;;;;;19.30;42.10;;;;;;5002219;28;19968;-54
2022/12/09 06:34:04;;;;;;;;;;;19.30;42.20;;;;;;5001099;28;20004;-54
2022/12/09 06:36:30;;;;;;;;;;;19.20;42.10;;;;;;5001118;28;19922;-54
2022/12/09 06:38:55;;;;;;;;;;;19.20;42.10;;;;;;5000510;28;19925;-54
2022/12/09 06:41:21;;;;;;;;;;;19.30;42.10;;;;;;5004139;28;19914;-53
2022/12/09 06:43:46;;;;;;;;;;;19.30;42.10;;;;;;5002638;28;19917;-54
2022/12/09 06:46:12;;;;;;;;;;;19.30;42.10;;;;;;5013285;28;20396;-54
2022/12/09 06:48:37;;;;;;;;;;;19.30;41.80;;;;;;5002716;28;19925;-54
2022/12/09 06:51:03;;;;;;;;;;;19.40;41.70;;;;;;5003288;28;19918;-53
2022/12/09 06:53:28;;;;;;;;;;;19.50;41.70;;;;;;5004224;28;19918;-53
2022/12/09 06:55:54;;;;;;;;;;;19.50;41.50;;;;;;5006199;28;19913;-53
2022/12/09 06:58:19;;;;;;;;;;;19.50;41.60;;;;;;5002694;28;19926;-56
2022/12/09 07:00:45;;;;;;;;;;;19.50;41.70;;;;;;5008588;28;19920;-55
2022/12/09 07:03:11;;;;;;;;;;;19.50;41.80;;;;;;5003901;28;19922;-53
2022/12/09 07:05:37;;;;;;;;;;;19.40;41.80;;;;;;5003081;28;19971;-53
2022/12/09 07:08:02;;;;;;;;;;;19.40;41.80;;;;;;4993676;28;19918;-53
2022/12/09 07:10:27;;;;;;;;;;;19.40;41.90;;;;;;5000305;28;19918;-54
2022/12/09 07:12:53;;;;;;;;;;;19.50;41.80;;;;;;5006385;28;19973;-54
2022/12/09 07:15:18;;;;;;;;;;;19.70;41.50;;;;;;4995837;28;19917;-53
2022/12/09 07:17:44;;;;;;;;;;;20.00;41.30;;;;;;5008771;28;19917;-53
2022/12/09 07:20:09;;;;;;;;;;;20.30;40.70;;;;;;5027397;28;20065;-53
2022/12/09 07:22:35;;;;;;;;;;;20.50;40.30;;;;;;5011408;28;19970;-55
2022/12/09 07:25:00;;;;;;;;;;;20.70;40.30;;;;;;5006813;28;20373;-54
2022/12/09 07:27:26;;;;;;;;;;;20.80;40.10;;;;;;5034134;28;19916;-55
2022/12/09 07:29:51;;;;;;;;;;;20.80;40.10;;;;;;5022169;28;20360;-54
2022/12/09 07:32:17;;;;;;;;;;;20.80;40.10;;;;;;5002896;28;20361;-54
2022/12/09 07:34:42;;;;;;;;;;;20.80;40.10;;;;;;5003960;28;20365;-54
2022/12/09 07:37:07;;;;;;;;;;;20.90;40.00;;;;;;5007462;28;20296;-54
2022/12/09 07:39:33;;;;;;;;;;;20.90;39.80;;;;;;5005890;28;20466;-55
2022/12/09 07:41:58;;;;;;;;;;;21.10;39.60;;;;;;5008545;28;19914;-55
2022/12/09 07:44:26;;;;;;;;;;;21.30;39.10;;;;;;5000474;28;19918;-54
2022/12/09 07:46:52;;;;;;;;;;;21.60;38.60;;;;;;5018322;28;19916;-54
2022/12/09 07:49:18;;;;;;;;;;;21.80;38.10;;;;;;5026680;28;19914;-54
2022/12/09 07:51:43;;;;;;;;;;;22.10;37.80;;;;;;5003727;28;20273;-55
2022/12/09 07:54:12;;;;;;;;;;;22.20;37.70;;;;;;5008210;28;19945;-55
2022/12/09 07:56:37;;;;;;;;;;;22.30;37.50;;;;;;4999069;28;20378;-54
2022/12/09 07:59:04;;;;;;;;;;;22.40;37.40;;;;;;5021866;28;19919;-53
2022/12/09 08:01:30;;;;;;;;;;;22.40;37.40;;;;;;5017908;28;20289;-53
2022/12/09 08:03:55;;;;;;;;;;;22.40;37.40;;;;;;5008287;28;19966;-52
2022/12/09 08:06:23;;;;;;;;;;;22.40;37.40;;;;;;5012368;28;20008;-54
2022/12/09 08:08:48;;;;;;;;;;;22.50;37.30;;;;;;5019963;28;19918;-54
2022/12/09 08:11:18;;;;;;;;;;;22.60;37.10;;;;;;5027285;28;19986;-54
2022/12/09 08:13:43;;;;;;;;;;;22.80;37.00;;;;;;5032274;28;19919;-54
2022/12/09 08:16:10;;;;;;;;;;;23.00;36.80;;;;;;5008231;28;19913;-54
2022/12/09 08:18:35;;;;;;;;;;;23.10;36.60;;;;;;5001064;28;19922;-53
2022/12/09 08:21:08;;;;;;;;;;;23.20;36.30;;;;;;4999399;28;20075;-54
2022/12/09 08:23:33;;;;;;;;;;;23.30;36.20;;;;;;5005600;28;19917;-55
2022/12/09 08:25:59;;;;;;;;;;;23.40;36.30;;;;;;5009046;28;20289;-54
2022/12/09 08:28:24;;;;;;;;;;;23.40;36.30;;;;;;5005279;28;20001;-54
2022/12/09 08:30:50;;;;;;;;;;;23.40;36.30;;;;;;5001675;28;20043;-54
2022/12/09 08:33:15;;;;;;;;;;;23.40;36.30;;;;;;5007986;28;19918;-55
2022/12/09 08:35:41;;;;;;;;;;;23.40;36.30;;;;;;5003500;28;19914;-55
2022/12/09 08:38:06;;;;;;;;;;;23.40;36.30;;;;;;5008012;28;19947;-54
2022/12/09 08:40:31;;;;;;;;;;;23.30;36.20;;;;;;5002421;28;19919;-56
2022/12/09 08:42:57;;;;;;;;;;;23.30;36.20;;;;;;5001891;28;19967;-53
2022/12/09 08:45:22;;;;;;;;;;;23.30;36.20;;;;;;5007125;28;19913;-54
2022/12/09 08:47:48;;;;;;;;;;;23.20;36.10;;;;;;5004281;28;19925;-54
2022/12/09 08:50:14;;;;;;;;;;;23.20;36.10;;;;;;5008745;28;19917;-54
2022/12/09 08:52:41;;;;;;;;;;;23.30;36.20;;;;;;5004803;28;20360;-55
2022/12/09 08:55:06;;;;;;;;;;;23.30;36.20;;;;;;5006763;28;19925;-54
2022/12/09 08:57:32;;;;;;;;;;;23.20;36.10;;;;;;5076959;28;20277;-53
2022/12/09 08:59:57;;;;;;;;;;;23.20;36.20;;;;;;5025793;28;19917;-54
2022/12/09 09:02:22;;;;;;;;;;;23.20;36.40;;;;;;5011748;28;19910;-54
2022/12/09 09:04:48;;;;;;;;;;;23.20;36.50;;;;;;5010704;28;19966;-54
2022/12/09 09:07:13;;;;;;;;;;;23.20;36.40;;;;;;5009028;28;20387;-54
2022/12/09 09:09:39;;;;;;;;;;;23.30;36.50;;;;;;5011660;28;20288;-54
2022/12/09 09:12:05;;;;;;;;;;;23.30;36.40;;;;;;5010273;28;19920;-53
2022/12/09 09:14:30;;;;;;;;;;;23.30;36.20;;;;;;5009798;28;20295;-53
2022/12/09 09:16:55;;;;;;;;;;;23.40;36.30;;;;;;5009048;28;19943;-53
2022/12/09 09:19:24;;;;;;;;;;;23.40;36.50;;;;;;5011488;28;19913;-55
2022/12/09 09:21:49;;;;;;;;;;;23.40;36.30;;;;;;4994480;28;20389;-53
2022/12/09 09:24:15;;;;;;;;;;;23.50;36.40;;;;;;5002355;28;19913;-53
2022/12/09 09:26:41;;;;;;;;;;;23.50;36.40;;;;;;5017194;28;19914;-54
2022/12/09 09:29:06;;;;;;;;;;;23.50;36.40;;;;;;5008045;28;19913;-54
2022/12/09 09:31:33;;;;;;;;;;;23.50;36.40;;;;;;5010525;28;20223;-53
2022/12/09 09:33:58;;;;;;;;;;;23.50;36.40;;;;;;5013507;28;19921;-54
2022/12/09 09:36:24;;;;;;;;;;;23.40;36.30;;;;;;5005919;28;19962;-53
2022/12/09 09:38:51;;;;;;;;;;;23.40;36.30;;;;;;4991842;28;19921;-54
2022/12/09 09:41:25;;;;;;;;;;;23.40;36.30;;;;;;5011089;28;19924;-53
2022/12/09 09:43:51;;;;;;;;;;;23.40;36.30;;;;;;5002632;28;20020;-53
2022/12/09 09:46:18;;;;;;;;;;;23.40;36.30;;;;;;4991556;28;19992;-53
2022/12/09 09:48:45;;;;;;;;;;;23.40;36.40;;;;;;4997186;28;19913;-53
2022/12/09 09:51:14;;;;;;;;;;;23.30;36.50;;;;;;5013269;28;20012;-54
2022/12/09 09:53:40;;;;;;;;;;;23.30;36.50;;;;;;4996757;28;19925;-55
2022/12/09 09:56:15;;;;;;;;;;;23.40;36.60;;;;;;5008924;28;19982;-53
2022/12/09 09:58:40;;;;;;;;;;;23.40;36.40;;;;;;4992149;28;20022;-55
2022/12/09 10:01:07;;;;;;;;;;;23.50;36.40;;;;;;5038743;28;20413;-55
2022/12/09 10:03:44;;;;;;;;;;;23.70;36.40;;;;;;5033073;28;20359;-53
2022/12/09 10:06:13;;;;;;;;;;;23.80;36.30;;;;;;5013221;28;19920;-53
2022/12/09 10:08:55;;;;;;;;;;;23.80;36.30;;;;;;5011035;28;19917;-54
2022/12/09 10:11:30;;;;;;;;;;;23.80;36.30;;;;;;4993791;28;20365;-54
2022/12/09 10:14:15;;;;;;;;;;;23.80;36.30;;;;;;5012204;28;20285;-54
2022/12/09 10:16:48;;;;;;;;;;;23.90;36.60;;;;;;5010433;28;19910;-54
2022/12/09 10:19:32;;;;;;;;;;;24.00;36.80;;;;;;5003526;28;20017;-54
2022/12/09 10:21:57;;;;;;;;;;;23.90;36.70;;;;;;5007253;28;19931;-53
2022/12/09 10:24:26;;;;;;;;;;;24.00;36.80;;;;;;5031555;28;19913;-54
2022/12/09 10:27:12;;;;;;;;;;;24.00;36.80;;;;;;5010708;28;20019;-55
2022/12/09 10:29:49;;;;;;;;;;;24.00;36.80;;;;;;5025218;28;19912;-52
2022/12/09 10:32:17;;;;;;;;;;;24.00;37.10;;;;;;5065512;28;21290;-53
2022/12/09 10:34:43;;;;;;;;;;;24.00;37.20;;;;;;5009667;28;19963;-53
2022/12/09 10:37:12;;;;;;;;;;;23.90;36.80;;;;;;5010290;28;19913;-54
2022/12/09 10:39:37;;;;;;;;;;;23.90;37.10;;;;;;5077944;28;19920;-54
2022/12/09 10:44:47;;;;;;;;;;;23.90;37.10;;;;;;4995257;28;19966;-54
2022/12/09 10:47:26;;;;;;;;;;;24.00;37.30;;;;;;5082565;28;20567;-54
2022/12/09 10:49:52;;;;;;;;;;;24.00;37.40;;;;;;4983040;28;19996;-55
2022/12/09 10:52:21;;;;;;;;;;;24.10;37.30;;;;;;5006758;28;20004;-54
2022/12/09 10:54:46;;;;;;;;;;;24.20;37.30;;;;;;4992660;28;19936;-54
2022/12/09 10:57:12;;;;;;;;;;;24.30;37.30;;;;;;5014075;28;19909;-54
2022/12/09 10:59:38;;;;;;;;;;;24.30;37.30;;;;;;5009958;28;19914;-54
2022/12/09 11:02:06;;;;;;;;;;;24.30;37.30;;;;;;5009548;28;19916;-56
2022/12/09 11:04:32;;;;;;;;;;;24.30;37.10;;;;;;5009636;28;19939;-54
2022/12/09 11:07:01;;;;;;;;;;;24.40;37.20;;;;;;5009923;28;20430;-54
2022/12/09 11:09:28;;;;;;;;;;;24.40;37.10;;;;;;5008585;28;19952;-54
2022/12/09 11:11:53;;;;;;;;;;;24.40;37.10;;;;;;5009817;28;19909;-56
2022/12/09 11:14:21;;;;;;;;;;;24.50;37.20;;;;;;5032643;28;19974;-53
2022/12/09 11:16:47;;;;;;;;;;;24.40;37.10;;;;;;4990219;28;19921;-53
2022/12/09 11:19:13;;;;;;;;;;;24.40;37.10;;;;;;4990149;28;19914;-54
2022/12/09 11:21:38;;;;;;;;;;;24.40;37.10;;;;;;5040884;28;19958;-53
2022/12/09 11:24:04;;;;;;;;;;;24.40;37.10;;;;;;5035272;28;19967;-55
2022/12/09 11:26:34;;;;;;;;;;;24.40;37.30;;;;;;5000217;28;19922;-53
2022/12/09 11:29:02;;;;;;;;;;;24.30;37.20;;;;;;5034668;28;19923;-54
2022/12/09 11:31:28;;;;;;;;;;;24.30;37.30;;;;;;4988215;28;19909;-54
2022/12/09 11:33:54;;;;;;;;;;;24.30;37.40;;;;;;4995580;28;19921;-54
2022/12/09 11:36:21;;;;;;;;;;;24.30;37.50;;;;;;5009710;28;19958;-54
2022/12/09 11:38:47;;;;;;;;;;;24.30;37.60;;;;;;5015215;28;20371;-54
2022/12/09 11:42:12;;;;;;;;;;;24.30;37.50;;;;;;5010476;28;19937;-54
2022/12/09 11:44:00;;;;;;;;;;;24.30;37.70;;;;;;5001859;28;19921;-54
2022/12/09 11:46:27;;;;;;;;;;;24.30;37.60;;;;;;4986854;28;19940;-56
2022/12/09 11:48:54;;;;;;;;;;;24.30;37.80;;;;;;5019814;28;20297;-56
2022/12/09 11:51:20;;;;;;;;;;;24.40;37.60;;;;;;5002926;28;19936;-54
2022/12/09 11:53:45;;;;;;;;;;;24.30;37.50;;;;;;4989886;28;19921;-54
2022/12/09 11:56:14;;;;;;;;;;;24.30;38.20;;;;;;5002827;28;19918;-52
2022/12/09 11:58:42;;;;;;;;;;;24.40;37.70;;;;;;5005726;28;19969;-52
2022/12/09 12:01:12;;;;;;;;;;;24.40;37.60;;;;;;5005629;28;19994;-54
2022/12/09 12:03:47;;;;;;;;;;;24.40;37.70;;;;;;4990481;28;20006;-55
2022/12/09 12:06:15;;;;;;;;;;;24.40;37.70;;;;;;5006083;28;19914;-54
2022/12/09 12:08:45;;;;;;;;;;;24.40;37.70;;;;;;4989999;28;19917;-55
2022/12/09 12:11:11;;;;;;;;;;;24.40;37.70;;;;;;4992070;28;19971;-55
2022/12/09 12:13:47;;;;;;;;;;;24.40;37.70;;;;;;5006846;28;19909;-54
2022/12/09 12:16:14;;;;;;;;;;;24.40;37.70;;;;;;5002414;28;19917;-54
2022/12/09 12:18:47;;;;;;;;;;;24.40;37.70;;;;;;5007981;28;20008;-55
2022/12/09 12:21:25;;;;;;;;;;;24.40;37.70;;;;;;5000572;28;19975;-55
2022/12/09 12:24:00;;;;;;;;;;;24.40;37.70;;;;;;5005092;28;19914;-54
2022/12/09 12:26:27;;;;;;;;;;;24.40;37.70;;;;;;5015067;28;20383;-54
2022/12/09 12:28:56;;;;;;;;;;;24.40;37.60;;;;;;4997350;28;20008;-54
2022/12/09 12:31:22;;;;;;;;;;;24.40;37.50;;;;;;5042649;28;19921;-55
2022/12/09 12:33:47;;;;;;;;;;;24.50;37.50;;;;;;5006763;28;19913;-55
2022/12/09 12:36:18;;;;;;;;;;;24.50;37.70;;;;;;5010587;28;19914;-55
2022/12/09 12:38:53;;;;;;;;;;;24.50;37.70;;;;;;4995982;28;19921;-54
2022/12/09 12:41:22;;;;;;;;;;;24.50;37.80;;;;;;5020658;28;20288;-55
2022/12/09 12:46:46;;;;;;;;;;;24.60;37.80;;;;;;5003799;28;20388;-53
2022/12/09 12:49:28;;;;;;;;;;;24.60;37.80;;;;;;5019203;28;20413;-54
2022/12/09 12:52:13;;;;;;;;;;;24.60;37.80;;;;;;5010094;28;19913;-54
2022/12/09 12:54:48;;;;;;;;;;;24.70;37.80;;;;;;5008863;28;19920;-53
2022/12/09 12:57:32;;;;;;;;;;;24.70;37.80;;;;;;4991551;28;19914;-55
2022/12/09 12:59:58;;;;;;;;;;;24.70;37.80;;;;;;5012905;28;19952;-54
2022/12/09 13:02:29;;;;;;;;;;;24.70;37.90;;;;;;5028974;28;19957;-53
2022/12/09 13:05:00;;;;;;;;;;;24.70;37.80;;;;;;5001079;28;19914;-54
2022/12/09 13:07:35;;;;;;;;;;;24.70;37.90;;;;;;5008908;28;20023;-54
2022/12/09 13:10:07;;;;;;;;;;;24.70;38.00;;;;;;4991953;28;19914;-54
2022/12/09 13:15:31;;;;;;;;;;;24.70;38.00;;;;;;5005882;28;19928;-53
2022/12/09 13:17:58;;;;;;;;;;;24.70;38.00;;;;;;5008338;28;19953;-53
2022/12/09 13:20:29;;;;;;;;;;;24.70;37.90;;;;;;5012231;28;19922;-53
2022/12/09 13:23:04;;;;;;;;;;;24.70;38.00;;;;;;4995030;28;20024;-54
2022/12/09 13:25:45;;;;;;;;;;;24.70;38.20;;;;;;5001656;28;19924;-55
2022/12/09 13:28:19;;;;;;;;;;;24.70;38.00;;;;;;4996417;28;20007;-54
2022/12/09 13:30:54;;;;;;;;;;;24.70;38.10;;;;;;5076458;28;19917;-54
2022/12/09 13:33:19;;;;;;;;;;;24.70;37.90;;;;;;5014728;28;19919;-54
2022/12/09 13:35:53;;;;;;;;;;;24.70;37.90;;;;;;5041784;28;20274;-54
2022/12/09 13:38:33;;;;;;;;;;;24.70;38.10;;;;;;4988901;28;19929;-53
2022/12/09 13:40:58;;;;;;;;;;;24.70;37.80;;;;;;4991577;28;19910;-53
2022/12/09 13:43:27;;;;;;;;;;;24.70;37.80;;;;;;5046774;28;20280;-54
2022/12/09 13:45:54;;;;;;;;;;;24.70;37.90;;;;;;5023188;28;19968;-54
2022/12/09 13:48:19;;;;;;;;;;;24.70;37.80;;;;;;5002167;28;19948;-54
2022/12/09 13:50:48;;;;;;;;;;;24.70;37.80;;;;;;5009824;28;19914;-53
2022/12/09 13:53:19;;;;;;;;;;;24.80;37.70;;;;;;5005436;28;19917;-53
2022/12/09 13:55:54;;;;;;;;;;;24.80;37.60;;;;;;5003585;28;20404;-53
2022/12/09 13:58:23;;;;;;;;;;;24.80;37.60;;;;;;5007990;28;20373;-53
2022/12/09 14:01:14;;;;;;;;;;;24.80;37.50;;;;;;5002743;28;19992;-53
2022/12/09 14:03:51;;;;;;;;;;;24.80;37.50;;;;;;5015983;28;19949;-54
2022/12/09 14:06:18;;;;;;;;;;;24.80;37.60;;;;;;5002783;28;19922;-53
2022/12/09 14:08:45;;;;;;;;;;;24.80;37.60;;;;;;4989226;28;19917;-53
2022/12/09 14:11:30;;;;;;;;;;;24.80;37.60;;;;;;5004986;28;19914;-53
2022/12/09 14:14:15;;;;;;;;;;;24.80;37.50;;;;;;4999272;28;19920;-55
2022/12/09 14:16:42;;;;;;;;;;;24.90;37.50;;;;;;5001168;28;20296;-54
2022/12/09 14:19:23;;;;;;;;;;;24.80;37.40;;;;;;5004155;28;19921;-53
2022/12/09 14:22:12;;;;;;;;;;;24.80;37.50;;;;;;4998896;28;19926;-52
2022/12/09 14:24:37;;;;;;;;;;;24.90;37.50;;;;;;5008806;28;19924;-54
2022/12/09 14:27:03;;;;;;;;;;;24.90;37.60;;;;;;5003401;28;20377;-54